Time;durP1;ratioP1;P1;durP2;ratioP2;P2;SDS_P1;SDS_P2;PMS_P1;PMS_P2;Temp;Humidity;BMP_temperature;BMP_pressure;BME280_temperature;BME280_humidity;BME280_pressure;Samples;Min_cycle;Max_cycle;Signal;HPM_P1;HPM_P2
2021/03/12 00:00:16;;;;;;;2.20;1.70;;;6.90;99.90;;;;;;4953107;28;20437;-75
2021/03/12 00:02:42;;;;;;;3.13;1.80;;;6.70;99.90;;;;;;4957877;28;20437;-75
2021/03/12 00:05:09;;;;;;;5.10;1.63;;;6.60;99.90;;;;;;4963443;28;20588;-75
2021/03/12 00:07:35;;;;;;;4.20;1.50;;;6.60;99.90;;;;;;4972811;28;20558;-77
2021/03/12 00:10:02;;;;;;;1.40;1.10;;;6.60;99.90;;;;;;4946426;28;20529;-77
2021/03/12 00:12:27;;;;;;;8.07;1.77;;;6.50;99.90;;;;;;4956581;28;20201;-77
2021/03/12 00:14:53;;;;;;;5.57;1.33;;;6.40;99.90;;;;;;4950371;28;20433;-76
2021/03/12 00:17:18;;;;;;;5.00;2.17;;;6.40;99.90;;;;;;4973591;28;20190;-76
2021/03/12 00:19:44;;;;;;;3.87;1.87;;;6.40;99.90;;;;;;4956997;28;20316;-76
2021/03/12 00:22:11;;;;;;;5.20;2.40;;;6.40;99.90;;;;;;4964664;28;20590;-75
2021/03/12 00:24:37;;;;;;;5.13;1.83;;;6.30;99.90;;;;;;4972398;28;20205;-75
2021/03/12 00:27:02;;;;;;;4.50;2.10;;;6.30;99.90;;;;;;4971235;28;20547;-76
2021/03/12 00:29:28;;;;;;;4.67;2.17;;;6.40;99.90;;;;;;4964320;28;20182;-76
2021/03/12 00:31:53;;;;;;;3.80;2.80;;;6.50;99.90;;;;;;4972092;28;20220;-76
2021/03/12 00:34:19;;;;;;;10.73;2.07;;;6.50;99.90;;;;;;4973207;28;20197;-75
2021/03/12 00:36:44;;;;;;;3.40;1.60;;;6.60;99.90;;;;;;4971827;28;20280;-77
2021/03/12 00:39:10;;;;;;;4.00;1.90;;;6.70;99.90;;;;;;4968310;28;20225;-76
2021/03/12 00:41:35;;;;;;;6.03;1.40;;;6.70;99.90;;;;;;4959460;28;20181;-76
2021/03/12 00:44:01;;;;;;;4.47;2.00;;;6.80;99.90;;;;;;4956432;28;20225;-75
2021/03/12 00:46:27;;;;;;;8.63;1.87;;;6.80;99.90;;;;;;4971070;28;20197;-76
2021/03/12 00:48:52;;;;;;;5.73;1.80;;;6.90;99.90;;;;;;4970972;28;20190;-77
2021/03/12 00:51:18;;;;;;;7.17;3.50;;;7.00;99.90;;;;;;4972684;28;20287;-75
2021/03/12 00:53:43;;;;;;;5.47;2.00;;;6.80;99.90;;;;;;4973618;28;20273;-77
2021/03/12 00:56:09;;;;;;;6.57;2.03;;;6.90;99.90;;;;;;4972477;28;20192;-77
2021/03/12 00:58:34;;;;;;;6.53;1.90;;;6.70;99.90;;;;;;4972086;28;20188;-76
2021/03/12 01:01:00;;;;;;;6.60;2.07;;;6.80;99.90;;;;;;4967770;28;20181;-76
2021/03/12 01:03:25;;;;;;;6.00;1.90;;;6.60;99.90;;;;;;4973208;28;20174;-75
2021/03/12 01:05:51;;;;;;;5.20;2.47;;;6.50;99.90;;;;;;4972865;28;20177;-78
2021/03/12 01:08:16;;;;;;;5.60;2.30;;;6.50;99.90;;;;;;4956156;28;20659;-78
2021/03/12 01:10:42;;;;;;;6.33;2.47;;;6.30;99.90;;;;;;4973856;28;20189;-76
2021/03/12 01:13:08;;;;;;;7.90;2.57;;;6.30;99.90;;;;;;4954817;28;20212;-77
2021/03/12 01:15:34;;;;;;;6.50;2.13;;;6.40;99.90;;;;;;4967008;28;20538;-76
2021/03/12 01:18:00;;;;;;;1.73;1.53;;;6.40;99.90;;;;;;4969558;28;20456;-76
2021/03/12 01:20:29;;;;;;;10.70;2.67;;;6.40;99.90;;;;;;4972963;28;20433;-78
2021/03/12 01:22:57;;;;;;;8.43;3.07;;;6.30;99.90;;;;;;4970890;28;20302;-78
2021/03/12 01:25:25;;;;;;;5.63;2.23;;;6.40;99.90;;;;;;4966159;28;20433;-77
2021/03/12 01:27:51;;;;;;;6.40;2.30;;;6.40;99.90;;;;;;4965095;28;20452;-77
2021/03/12 01:30:21;;;;;;;8.20;2.50;;;6.40;99.90;;;;;;4963812;28;20431;-77
2021/03/12 01:32:47;;;;;;;4.97;2.00;;;6.40;99.90;;;;;;4973622;28;20197;-76
2021/03/12 01:35:13;;;;;;;4.70;1.73;;;6.40;99.90;;;;;;4977689;28;20417;-77
2021/03/12 01:37:39;;;;;;;7.20;2.20;;;6.40;99.90;;;;;;4978985;28;20452;-78
2021/03/12 01:40:07;;;;;;;3.57;2.10;;;6.40;99.90;;;;;;4973308;28;20480;-78
2021/03/12 01:42:33;;;;;;;4.20;1.80;;;6.50;99.90;;;;;;4967421;28;20206;-77
2021/03/12 01:44:59;;;;;;;9.70;2.53;;;6.50;99.90;;;;;;4958495;28;20472;-77
2021/03/12 01:47:24;;;;;;;6.83;2.77;;;6.50;99.90;;;;;;4959573;28;20204;-77
2021/03/12 01:49:50;;;;;;;7.67;2.13;;;6.50;99.90;;;;;;4975918;28;20412;-77
2021/03/12 01:52:16;;;;;;;10.90;2.77;;;6.50;99.90;;;;;;4957329;28;20249;-78
2021/03/12 01:54:41;;;;;;;8.43;2.30;;;6.50;99.90;;;;;;4977022;28;20220;-77
2021/03/12 01:57:07;;;;;;;6.00;2.47;;;6.50;99.90;;;;;;4975950;28;20193;-76
2021/03/12 01:59:33;;;;;;;12.10;2.43;;;6.40;99.90;;;;;;4974920;28;20165;-77
2021/03/12 02:01:59;;;;;;;11.97;3.07;;;6.40;99.90;;;;;;4976309;28;20177;-78
2021/03/12 02:04:24;;;;;;;9.37;2.57;;;6.30;99.90;;;;;;4976816;28;20172;-76
2021/03/12 02:06:51;;;;;;;5.17;2.43;;;6.30;99.90;;;;;;4974520;28;20568;-77
2021/03/12 02:09:17;;;;;;;9.63;3.77;;;6.30;99.90;;;;;;4975257;28;20604;-77
2021/03/12 02:11:48;;;;;;;14.20;4.27;;;6.30;99.90;;;;;;4963156;28;20489;-78
2021/03/12 02:14:20;;;;;;;9.43;3.47;;;6.20;99.90;;;;;;4964677;28;20484;-77
2021/03/12 02:16:53;;;;;;;11.63;3.03;;;6.20;99.90;;;;;;4958310;28;20437;-77
2021/03/12 02:19:39;;;;;;;10.27;4.20;;;6.20;99.90;;;;;;4967420;28;20440;-76
2021/03/12 02:22:06;;;;;;;14.70;3.30;;;6.20;99.90;;;;;;4948205;28;20811;-77
2021/03/12 02:24:54;;;;;;;7.53;2.83;;;6.20;99.90;;;;;;4974402;28;20443;-76
2021/03/12 02:27:21;;;;;;;7.87;2.80;;;6.20;99.90;;;;;;4975548;28;20567;-78
2021/03/12 02:29:51;;;;;;;9.97;2.80;;;6.20;99.90;;;;;;4976372;28;20436;-77
2021/03/12 02:32:23;;;;;;;9.53;2.87;;;6.30;99.90;;;;;;4978285;28;20515;-77
2021/03/12 02:34:50;;;;;;;9.23;3.20;;;6.30;99.90;;;;;;4977885;28;20405;-79
2021/03/12 02:37:18;;;;;;;12.50;3.27;;;6.20;99.90;;;;;;4960536;28;20949;-78
2021/03/12 02:39:53;;;;;;;8.10;2.60;;;6.20;99.90;;;;;;4956512;28;20508;-77
2021/03/12 02:42:21;;;;;;;14.33;2.93;;;6.30;99.90;;;;;;4959864;28;20432;-78
2021/03/12 02:44:48;;;;;;;10.80;2.70;;;6.30;99.90;;;;;;4975437;28;20421;-77
2021/03/12 02:47:22;;;;;;;10.30;3.30;;;6.30;99.90;;;;;;4974975;28;20483;-77
2021/03/12 02:49:49;;;;;;;14.70;2.90;;;6.30;99.90;;;;;;4974456;28;20933;-76
2021/03/12 02:52:16;;;;;;;17.63;5.33;;;6.30;99.90;;;;;;4974444;28;20453;-76
2021/03/12 02:54:43;;;;;;;13.43;4.00;;;6.30;99.90;;;;;;4974891;28;21042;-76
2021/03/12 02:57:09;;;;;;;12.13;2.80;;;6.30;99.90;;;;;;4974427;28;20950;-76
2021/03/12 02:59:35;;;;;;;15.67;3.73;;;6.30;99.90;;;;;;4956788;28;20432;-76
2021/03/12 03:02:01;;;;;;;15.40;3.33;;;6.30;99.90;;;;;;4973223;28;20443;-76
2021/03/12 03:04:28;;;;;;;10.83;2.97;;;6.30;99.90;;;;;;4974816;28;20213;-77
2021/03/12 03:06:55;;;;;;;13.70;3.30;;;6.40;99.90;;;;;;4974723;28;20464;-77
2021/03/12 03:09:24;;;;;;;15.77;3.70;;;6.30;99.90;;;;;;4974642;28;20796;-77
2021/03/12 03:11:51;;;;;;;5.60;2.40;;;6.30;99.90;;;;;;4975256;28;20496;-78
2021/03/12 03:14:17;;;;;;;9.73;2.97;;;6.40;99.90;;;;;;4960383;28;20435;-78
2021/03/12 03:16:44;;;;;;;10.30;2.70;;;6.40;99.90;;;;;;4958180;28;20541;-77
2021/03/12 03:19:11;;;;;;;6.73;2.17;;;6.40;99.90;;;;;;4975935;28;20520;-76
2021/03/12 03:21:37;;;;;;;12.93;2.27;;;6.40;99.90;;;;;;4972898;28;21017;-77
2021/03/12 03:24:04;;;;;;;10.67;2.10;;;6.50;99.90;;;;;;4956484;28;20927;-77
2021/03/12 03:26:29;;;;;;;11.70;3.30;;;6.50;99.90;;;;;;4943372;28;20492;-76
2021/03/12 03:28:55;;;;;;;19.23;3.30;;;6.50;99.90;;;;;;4972474;28;20785;-79
2021/03/12 03:31:21;;;;;;;9.63;3.37;;;6.50;99.90;;;;;;4976440;28;20563;-78
2021/03/12 03:33:47;;;;;;;6.70;2.33;;;6.50;99.90;;;;;;4977286;28;20162;-77
2021/03/12 03:36:13;;;;;;;9.00;2.33;;;6.40;99.90;;;;;;4975753;28;20445;-78
2021/03/12 03:38:39;;;;;;;7.30;2.53;;;6.50;99.90;;;;;;4969344;28;20215;-77
2021/03/12 03:41:08;;;;;;;6.63;2.37;;;6.50;99.90;;;;;;4980576;28;20267;-76
2021/03/12 03:43:38;;;;;;;15.27;3.43;;;6.40;99.90;;;;;;4971609;28;20433;-76
2021/03/12 03:46:06;;;;;;;10.27;2.60;;;6.40;99.90;;;;;;4972205;28;20433;-78
2021/03/12 03:48:34;;;;;;;7.13;4.80;;;6.50;99.90;;;;;;4966936;28;20771;-77
2021/03/12 03:51:01;;;;;;;12.43;4.93;;;6.50;99.90;;;;;;4974607;28;20429;-77
2021/03/12 03:53:28;;;;;;;10.63;2.57;;;6.50;99.90;;;;;;4972238;28;20452;-76
2021/03/12 03:55:56;;;;;;;9.77;2.60;;;6.50;99.90;;;;;;4956947;28;20429;-77
2021/03/12 03:58:22;;;;;;;8.10;2.33;;;6.50;99.90;;;;;;4955909;28;20478;-76
2021/03/12 04:00:50;;;;;;;9.33;3.60;;;6.50;99.90;;;;;;4965640;28;20417;-77
2021/03/12 04:03:16;;;;;;;6.07;2.17;;;6.50;99.90;;;;;;4937260;29;20328;-77
2021/03/12 04:05:42;;;;;;;7.97;3.10;;;6.50;99.90;;;;;;4961624;28;20473;-78
2021/03/12 04:08:08;;;;;;;8.73;3.13;;;6.40;99.90;;;;;;4974807;28;20268;-77
2021/03/12 04:10:34;;;;;;;20.73;5.33;;;6.40;99.90;;;;;;4939594;28;20418;-77
2021/03/12 04:13:01;;;;;;;11.30;3.83;;;6.50;99.90;;;;;;4950294;28;20459;-78
2021/03/12 04:15:27;;;;;;;7.60;3.30;;;6.50;99.90;;;;;;4973802;28;21059;-77
2021/03/12 04:17:54;;;;;;;13.10;3.07;;;6.50;99.90;;;;;;4976437;28;20457;-77
2021/03/12 04:20:20;;;;;;;12.67;2.77;;;6.50;99.90;;;;;;4966179;28;20488;-77
2021/03/12 04:22:48;;;;;;;10.37;4.10;;;6.50;99.90;;;;;;4954203;29;20406;-76
2021/03/12 04:25:15;;;;;;;16.27;3.87;;;6.50;99.90;;;;;;4958654;28;21021;-76
2021/03/12 04:27:40;;;;;;;8.40;3.63;;;6.40;99.90;;;;;;4961536;28;22194;-76
2021/03/12 04:30:08;;;;;;;10.43;4.13;;;6.40;99.90;;;;;;4962362;28;20433;-77
2021/03/12 04:32:36;;;;;;;13.67;3.40;;;6.40;99.90;;;;;;4970103;28;20460;-76
2021/03/12 04:35:02;;;;;;;10.37;4.17;;;6.40;99.90;;;;;;4964004;28;20513;-78
2021/03/12 04:37:28;;;;;;;7.17;3.10;;;6.40;99.90;;;;;;4955476;28;20450;-77
2021/03/12 04:39:54;;;;;;;8.07;3.20;;;6.40;99.90;;;;;;4964895;28;20432;-77
2021/03/12 04:42:20;;;;;;;7.07;3.20;;;6.50;99.90;;;;;;4975061;28;20181;-77
2021/03/12 04:44:46;;;;;;;10.43;2.80;;;6.50;99.90;;;;;;4970630;28;20811;-76
2021/03/12 04:47:12;;;;;;;15.60;3.73;;;6.30;99.90;;;;;;4971054;28;20471;-76
2021/03/12 04:49:37;;;;;;;11.43;3.00;;;6.30;99.90;;;;;;4972760;28;20185;-80
2021/03/12 04:52:04;;;;;;;12.50;2.30;;;6.40;99.90;;;;;;4972973;28;20209;-76
2021/03/12 04:54:31;;;;;;;10.20;2.43;;;6.40;99.90;;;;;;4973108;28;20220;-77
2021/03/12 04:56:58;;;;;;;10.67;3.70;;;6.40;99.90;;;;;;4972818;28;20499;-76
2021/03/12 04:59:24;;;;;;;7.33;2.60;;;6.40;99.90;;;;;;4961038;28;20416;-77
2021/03/12 05:01:49;;;;;;;12.83;3.70;;;6.30;99.90;;;;;;4972859;28;20523;-76
2021/03/12 05:04:16;;;;;;;11.40;3.77;;;6.40;99.90;;;;;;4971986;28;20464;-77
2021/03/12 05:06:44;;;;;;;12.87;2.80;;;6.40;99.90;;;;;;4957754;28;20824;-77
2021/03/12 05:09:11;;;;;;;9.83;3.27;;;6.40;99.90;;;;;;4965111;28;20918;-76
2021/03/12 05:11:37;;;;;;;11.87;3.27;;;6.30;99.90;;;;;;4975728;28;20556;-78
2021/03/12 05:14:02;;;;;;;10.93;2.83;;;6.30;99.90;;;;;;4976588;28;20459;-76
2021/03/12 05:16:28;;;;;;;9.50;2.20;;;6.30;99.90;;;;;;4973907;28;20563;-76
2021/03/12 05:18:54;;;;;;;22.87;7.13;;;6.30;99.90;;;;;;4960861;28;20169;-79
2021/03/12 05:21:19;;;;;;;7.97;2.47;;;6.40;99.90;;;;;;4962706;28;20189;-78
2021/03/12 05:23:45;;;;;;;9.57;2.47;;;6.40;99.90;;;;;;4954701;28;20185;-76
2021/03/12 05:26:10;;;;;;;12.83;2.53;;;6.40;99.90;;;;;;4966984;28;20190;-78
2021/03/12 05:28:36;;;;;;;11.67;4.20;;;6.30;99.90;;;;;;4969750;28;20189;-78
2021/03/12 05:31:02;;;;;;;7.93;2.53;;;6.30;99.90;;;;;;4953293;28;20254;-76
2021/03/12 05:33:28;;;;;;;9.63;2.30;;;6.30;99.90;;;;;;4968809;28;20851;-77
2021/03/12 05:35:53;;;;;;;13.47;2.47;;;6.30;99.90;;;;;;4968006;28;20228;-77
2021/03/12 05:38:19;;;;;;;7.53;3.03;;;6.30;99.90;;;;;;4972295;28;20449;-77
2021/03/12 05:40:45;;;;;;;7.47;3.03;;;6.30;99.90;;;;;;4975226;28;20262;-77
2021/03/12 05:43:10;;;;;;;10.30;3.27;;;6.30;99.90;;;;;;4976546;28;20174;-76
2021/03/12 05:45:37;;;;;;;13.30;3.10;;;6.30;99.90;;;;;;4976110;28;20170;-76
2021/03/12 05:48:04;;;;;;;13.60;3.20;;;6.30;99.90;;;;;;4975587;28;20205;-76
2021/03/12 05:50:29;;;;;;;12.00;2.97;;;6.30;99.90;;;;;;4975085;28;20519;-76
2021/03/12 05:52:55;;;;;;;13.23;5.00;;;6.40;99.90;;;;;;4975538;28;20543;-76
2021/03/12 05:55:21;;;;;;;9.63;2.20;;;6.40;99.90;;;;;;4975632;28;20181;-76
2021/03/12 05:57:47;;;;;;;7.90;2.83;;;6.40;99.90;;;;;;4975379;28;20563;-76
2021/03/12 06:00:14;;;;;;;11.20;3.33;;;6.40;99.90;;;;;;4975031;28;20177;-77
2021/03/12 06:02:40;;;;;;;7.33;2.50;;;6.40;99.90;;;;;;4976850;28;20433;-77
2021/03/12 06:05:07;;;;;;;19.93;3.30;;;6.40;99.90;;;;;;4976025;28;20769;-77
2021/03/12 06:07:33;;;;;;;9.60;2.70;;;6.40;99.90;;;;;;4975638;28;20194;-77
2021/03/12 06:09:59;;;;;;;7.20;2.63;;;6.40;99.90;;;;;;4968027;28;20503;-77
2021/03/12 06:12:24;;;;;;;9.33;2.77;;;6.40;99.90;;;;;;4971828;28;20508;-77
2021/03/12 06:14:54;;;;;;;14.17;3.07;;;6.40;99.90;;;;;;4967311;28;20201;-77
2021/03/12 06:17:41;;;;;;;5.30;2.77;;;6.50;99.90;;;;;;4957917;28;20194;-77
2021/03/12 06:20:10;;;;;;;11.33;3.57;;;6.50;99.90;;;;;;4962650;28;20432;-78
2021/03/12 06:22:37;;;;;;;11.03;3.10;;;6.50;99.90;;;;;;4970018;28;20787;-77
2021/03/12 06:25:19;;;;;;;9.93;2.20;;;6.50;99.90;;;;;;4975756;28;20433;-77
2021/03/12 06:27:46;;;;;;;13.20;3.50;;;6.50;99.90;;;;;;4975688;28;20977;-77
2021/03/12 06:30:13;;;;;;;15.70;3.40;;;6.50;99.90;;;;;;4974961;28;20428;-77
2021/03/12 06:32:50;;;;;;;10.43;3.37;;;6.60;99.90;;;;;;4975826;28;20600;-77
2021/03/12 06:35:23;;;;;;;15.00;2.87;;;6.60;99.90;;;;;;4958108;28;20437;-77
2021/03/12 06:37:49;;;;;;;8.97;3.33;;;6.60;99.90;;;;;;4963293;28;20465;-77
2021/03/12 06:40:27;;;;;;;11.30;2.60;;;6.70;99.90;;;;;;4954131;28;20443;-77
2021/03/12 06:43:12;;;;;;;10.43;3.13;;;6.70;99.90;;;;;;4971310;28;20516;-77
2021/03/12 06:45:40;;;;;;;8.20;2.43;;;6.70;99.90;;;;;;4967581;28;20441;-77
2021/03/12 06:48:16;;;;;;;8.40;2.47;;;6.80;99.90;;;;;;4948476;28;20481;-77
2021/03/12 06:50:43;;;;;;;10.67;4.40;;;6.80;99.90;;;;;;4968952;28;20527;-77
2021/03/12 06:53:27;;;;;;;9.83;3.10;;;6.80;99.90;;;;;;4975545;28;20580;-77
2021/03/12 06:55:55;;;;;;;11.67;3.60;;;6.90;99.90;;;;;;4974533;28;20436;-77
2021/03/12 06:58:20;;;;;;;9.40;2.83;;;7.00;99.90;;;;;;4975517;28;20512;-77
2021/03/12 07:00:46;;;;;;;9.33;2.50;;;7.00;99.90;;;;;;4972771;28;20635;-77
2021/03/12 07:03:22;;;;;;;7.27;2.40;;;7.10;99.90;;;;;;4957106;28;20182;-77
2021/03/12 07:05:58;;;;;;;6.53;2.90;;;7.10;99.90;;;;;;4974668;28;20428;-77
2021/03/12 07:08:47;;;;;;;12.83;2.80;;;7.20;99.90;;;;;;4973406;28;20455;-77
2021/03/12 07:11:18;;;;;;;8.93;2.87;;;7.20;99.90;;;;;;4973494;28;20467;-78
2021/03/12 07:13:44;;;;;;;12.53;2.93;;;7.40;99.90;;;;;;4966979;28;20430;-78
2021/03/12 07:16:09;;;;;;;10.10;2.87;;;7.50;99.90;;;;;;4950085;28;20479;-78
2021/03/12 07:18:35;;;;;;;7.30;2.53;;;7.60;99.90;;;;;;4941067;29;20202;-78
2021/03/12 07:21:02;;;;;;;16.17;3.17;;;7.50;99.90;;;;;;4950557;28;20170;-76
2021/03/12 07:23:29;;;;;;;10.10;2.50;;;7.60;99.90;;;;;;4976251;28;20308;-77
2021/03/12 07:25:55;;;;;;;12.10;2.93;;;7.60;99.90;;;;;;4974240;28;20436;-77
2021/03/12 07:28:23;;;;;;;11.30;2.20;;;7.60;99.90;;;;;;4973828;28;20445;-77
2021/03/12 07:30:50;;;;;;;14.53;3.23;;;7.50;99.90;;;;;;4974230;28;20180;-76
2021/03/12 07:33:19;;;;;;;18.97;3.00;;;7.60;99.90;;;;;;4974023;28;20459;-76
2021/03/12 07:35:45;;;;;;;17.67;3.90;;;7.60;99.90;;;;;;4973690;28;20451;-76
2021/03/12 07:38:12;;;;;;;9.73;2.67;;;7.70;99.90;;;;;;4973320;28;20448;-76
2021/03/12 07:40:38;;;;;;;15.50;4.00;;;7.90;99.90;;;;;;4970546;28;20178;-76
2021/03/12 07:43:07;;;;;;;11.53;2.53;;;8.00;99.90;;;;;;4973541;28;20439;-78
2021/03/12 07:45:32;;;;;;;15.53;3.40;;;8.30;99.90;;;;;;4971936;28;20252;-77
2021/03/12 07:48:05;;;;;;;10.53;3.27;;;8.40;99.90;;;;;;5085184;28;20571;-77
2021/03/12 07:50:35;;;;;;;9.07;2.80;;;8.70;99.90;;;;;;5064597;28;20822;-77
2021/03/12 07:53:02;;;;;;;5.33;2.60;;;8.80;99.90;;;;;;5066020;28;20430;-76
2021/03/12 07:55:36;;;;;;;10.50;2.60;;;8.80;99.90;;;;;;5049093;28;20436;-76
2021/03/12 07:58:28;;;;;;;15.90;3.37;;;9.10;99.90;;;;;;5053067;28;20881;-76
2021/03/12 08:00:57;;;;;;;15.53;2.87;;;9.10;99.90;;;;;;5058418;28;20759;-76
2021/03/12 08:03:30;;;;;;;12.03;2.60;;;9.40;99.90;;;;;;5043366;28;20551;-77
2021/03/12 08:05:56;;;;;;;7.07;2.90;;;9.90;99.90;;;;;;5055724;28;20715;-77
2021/03/12 08:08:39;;;;;;;9.00;3.20;;;10.00;99.90;;;;;;5067607;28;21170;-76
2021/03/12 08:11:27;;;;;;;9.10;3.20;;;9.90;99.90;;;;;;5052267;28;20520;-76
2021/03/12 08:13:54;;;;;;;4.70;1.93;;;9.50;99.90;;;;;;5049068;28;20409;-77
2021/03/12 08:16:20;;;;;;;9.03;2.70;;;9.70;99.90;;;;;;5051401;28;21256;-75
2021/03/12 08:18:46;;;;;;;15.00;3.07;;;9.30;99.90;;;;;;5066976;28;20512;-76
2021/03/12 08:21:28;;;;;;;10.83;3.50;;;8.80;99.90;;;;;;5050090;28;20265;-76
2021/03/12 08:23:53;;;;;;;9.30;3.17;;;8.60;99.90;;;;;;5056752;28;20425;-76
2021/03/12 08:26:50;;;;;;;18.70;3.13;;;8.60;99.90;;;;;;5051464;28;20468;-76
2021/03/12 08:29:38;;;;;;;8.00;2.50;;;8.60;99.90;;;;;;5068469;28;20194;-75
2021/03/12 08:32:36;;;;;;;9.73;3.53;;;8.70;99.90;;;;;;5074960;28;20516;-77
2021/03/12 08:35:03;;;;;;;10.23;2.90;;;8.70;99.90;;;;;;5065306;28;20517;-77
2021/03/12 08:37:29;;;;;;;16.37;3.63;;;8.80;99.90;;;;;;5062222;28;20568;-76
2021/03/12 08:40:16;;;;;;;7.13;2.57;;;8.90;99.90;;;;;;5060613;28;20524;-74
2021/03/12 08:42:56;;;;;;;10.20;3.30;;;8.90;99.90;;;;;;5062387;28;20436;-76
2021/03/12 08:45:48;;;;;;;10.97;3.03;;;8.80;99.90;;;;;;5046271;28;20178;-76
2021/03/12 08:48:19;;;;;;;9.80;2.60;;;8.60;99.90;;;;;;5055631;28;20481;-77
2021/03/12 08:51:04;;;;;;;13.83;3.20;;;8.40;99.90;;;;;;5046420;28;20453;-76
2021/03/12 08:53:32;;;;;;;7.13;2.17;;;8.50;99.90;;;;;;5060251;28;20918;-77
2021/03/12 08:55:59;;;;;;;7.33;2.40;;;8.60;99.90;;;;;;5048107;28;20422;-77
2021/03/12 08:58:27;;;;;;;12.13;2.50;;;8.70;99.90;;;;;;5040195;28;20524;-77
2021/03/12 09:01:08;;;;;;;5.23;2.20;;;8.60;99.90;;;;;;5033099;28;20502;-75
2021/03/12 09:03:34;;;;;;;7.63;2.80;;;8.90;99.90;;;;;;5034753;28;20383;-78
2021/03/12 09:06:03;;;;;;;7.90;2.97;;;9.20;99.90;;;;;;5032195;28;20457;-77
2021/03/12 09:08:30;;;;;;;8.27;2.97;;;9.20;99.90;;;;;;5032889;28;20450;-76
2021/03/12 09:10:56;;;;;;;9.30;2.40;;;9.30;99.90;;;;;;5032176;28;20480;-76
2021/03/12 09:13:25;;;;;;;14.70;4.13;;;9.30;99.90;;;;;;5024801;28;20410;-77
2021/03/12 09:15:52;;;;;;;11.47;2.07;;;9.30;99.90;;;;;;5034173;28;20429;-76
2021/03/12 09:18:19;;;;;;;16.00;3.17;;;9.40;99.90;;;;;;5036896;28;20445;-77
2021/03/12 09:20:50;;;;;;;14.43;3.77;;;9.50;99.90;;;;;;5041737;28;20876;-77
2021/03/12 09:23:16;;;;;;;11.80;2.50;;;9.60;99.90;;;;;;5051904;28;20432;-76
2021/03/12 09:25:42;;;;;;;8.17;2.90;;;9.60;99.90;;;;;;5052078;28;20832;-76
2021/03/12 09:28:10;;;;;;;9.40;3.53;;;9.90;99.90;;;;;;5053007;28;20198;-76
2021/03/12 09:30:39;;;;;;;14.03;2.37;;;10.20;99.90;;;;;;5042045;28;20212;-76
2021/03/12 09:33:06;;;;;;;8.33;2.97;;;10.70;99.90;;;;;;5054050;28;20402;-76
2021/03/12 09:35:40;;;;;;;15.50;2.67;;;11.40;99.90;;;;;;5040577;28;20419;-78
2021/03/12 09:38:07;;;;;;;6.30;2.33;;;11.60;99.90;;;;;;5034019;28;20444;-77
2021/03/12 09:40:37;;;;;;;6.50;2.20;;;11.30;99.90;;;;;;5045956;28;20514;-76
2021/03/12 09:43:03;;;;;;;10.13;2.40;;;10.80;99.90;;;;;;5033926;28;20403;-78
2021/03/12 09:45:29;;;;;;;12.77;3.00;;;11.20;99.90;;;;;;5032676;28;20842;-76
2021/03/12 09:47:55;;;;;;;7.37;2.27;;;11.30;99.90;;;;;;5028243;28;20553;-77
2021/03/12 09:50:26;;;;;;;10.60;4.37;;;11.50;99.90;;;;;;5019302;28;20173;-77
2021/03/12 09:52:55;;;;;;;5.33;2.33;;;11.70;99.90;;;;;;5019354;28;20410;-76
2021/03/12 09:55:21;;;;;;;7.37;2.60;;;11.70;99.90;;;;;;5035289;28;20429;-76
2021/03/12 09:57:47;;;;;;;5.90;2.37;;;11.60;99.90;;;;;;5046557;28;21039;-76
2021/03/12 10:00:21;;;;;;;6.47;2.30;;;11.50;99.90;;;;;;5050335;28;20440;-76
2021/03/12 10:02:58;;;;;;;8.23;2.70;;;11.80;99.90;;;;;;5047178;28;20434;-77
2021/03/12 10:05:24;;;;;;;7.93;2.80;;;11.70;99.90;;;;;;5036564;28;20433;-77
2021/03/12 10:07:51;;;;;;;8.77;2.43;;;11.60;99.90;;;;;;5036452;28;20896;-76
2021/03/12 10:10:25;;;;;;;8.87;2.43;;;11.50;99.90;;;;;;5038023;28;20429;-76
2021/03/12 10:12:53;;;;;;;4.80;2.07;;;11.10;99.90;;;;;;5037833;28;20420;-76
2021/03/12 10:15:22;;;;;;;10.83;4.00;;;11.10;99.90;;;;;;5049874;28;20872;-77
2021/03/12 10:17:49;;;;;;;9.60;6.73;;;11.30;99.90;;;;;;5037148;28;20525;-77
2021/03/12 10:20:19;;;;;;;5.30;2.33;;;11.20;99.90;;;;;;5048540;28;20471;-77
2021/03/12 10:22:47;;;;;;;6.70;2.47;;;11.30;99.90;;;;;;5051367;28;20464;-77
2021/03/12 10:25:20;;;;;;;3.63;2.00;;;11.80;99.90;;;;;;5039820;28;20433;-77
2021/03/12 10:28:11;;;;;;;6.23;2.40;;;11.70;99.90;;;;;;5041440;28;20976;-77
2021/03/12 10:30:42;;;;;;;6.33;2.10;;;12.10;99.90;;;;;;5040738;28;20529;-77
2021/03/12 10:33:10;;;;;;;5.50;2.00;;;12.20;99.90;;;;;;5036286;28;20476;-77
2021/03/12 10:35:49;;;;;;;5.43;1.87;;;12.70;99.90;;;;;;5038037;28;20479;-78
2021/03/12 10:38:23;;;;;;;4.87;1.80;;;12.90;99.90;;;;;;5053618;28;20459;-79
2021/03/12 10:41:04;;;;;;;10.50;3.13;;;12.50;99.90;;;;;;5042035;28;20429;-79
2021/03/12 10:43:33;;;;;;;5.80;2.07;;;12.00;99.90;;;;;;5036110;28;20417;-79
2021/03/12 10:46:02;;;;;;;7.07;2.23;;;11.50;99.90;;;;;;5043502;28;20838;-79
2021/03/12 10:48:37;;;;;;;10.30;2.50;;;11.80;99.90;;;;;;5049326;28;20464;-79
2021/03/12 10:51:05;;;;;;;11.17;2.70;;;11.80;99.90;;;;;;5048891;28;20429;-79
2021/03/12 10:53:42;;;;;;;7.80;2.60;;;11.30;99.90;;;;;;5052158;28;21001;-78
2021/03/12 10:56:07;;;;;;;9.13;3.27;;;11.20;99.90;;;;;;5053629;28;20460;-79
2021/03/12 10:58:36;;;;;;;3.47;1.80;;;11.20;99.90;;;;;;5049085;28;20424;-79
2021/03/12 11:01:12;;;;;;;8.57;2.20;;;11.10;99.90;;;;;;5053387;28;20184;-79
2021/03/12 11:03:39;;;;;;;4.47;2.33;;;10.90;99.90;;;;;;5049576;28;20440;-79
2021/03/12 11:06:05;;;;;;;7.07;1.93;;;11.10;99.90;;;;;;5038177;28;20543;-77
2021/03/12 11:08:31;;;;;;;8.57;2.07;;;11.20;99.90;;;;;;5052103;28;20453;-79
2021/03/12 11:10:59;;;;;;;6.00;1.90;;;11.10;99.90;;;;;;5043173;28;20455;-79
2021/03/12 11:13:25;;;;;;;4.13;2.30;;;11.00;99.90;;;;;;5052670;28;20488;-78
2021/03/12 11:15:51;;;;;;;7.90;2.80;;;10.90;99.90;;;;;;5042950;28;20458;-78
2021/03/12 11:18:17;;;;;;;5.83;2.57;;;11.20;99.90;;;;;;5033833;28;20203;-79
2021/03/12 11:20:42;;;;;;;6.83;2.03;;;11.60;99.90;;;;;;5039094;28;20205;-78
2021/03/12 11:23:09;;;;;;;8.00;2.53;;;11.40;99.90;;;;;;5047164;28;20433;-79
2021/03/12 11:25:34;;;;;;;6.30;2.50;;;11.50;99.90;;;;;;5038722;28;20217;-79
2021/03/12 11:28:01;;;;;;;9.10;2.50;;;11.30;99.90;;;;;;5053883;28;20464;-80
2021/03/12 11:30:27;;;;;;;6.07;2.17;;;11.20;99.90;;;;;;5039920;28;20175;-78
2021/03/12 11:32:53;;;;;;;6.67;2.23;;;10.90;99.90;;;;;;5055407;28;20462;-79
2021/03/12 11:35:19;;;;;;;5.13;1.87;;;10.70;99.90;;;;;;5052002;28;20175;-79
2021/03/12 11:37:45;;;;;;;7.70;2.50;;;10.90;99.90;;;;;;5051670;28;20195;-80
2021/03/12 11:40:12;;;;;;;7.83;2.33;;;10.90;99.90;;;;;;5047395;28;20449;-79
2021/03/12 11:42:38;;;;;;;9.10;2.00;;;11.10;99.90;;;;;;5050805;28;20205;-78
2021/03/12 11:45:06;;;;;;;8.00;1.70;;;11.10;99.90;;;;;;5033109;28;20413;-78
2021/03/12 11:47:32;;;;;;;10.13;2.57;;;11.10;99.90;;;;;;5038874;28;20458;-79
2021/03/12 11:49:57;;;;;;;9.37;2.97;;;11.20;99.90;;;;;;5035205;28;20451;-77
2021/03/12 11:52:26;;;;;;;5.67;2.13;;;11.10;99.90;;;;;;5050030;28;20174;-80
2021/03/12 11:54:55;;;;;;;9.57;3.17;;;11.70;99.90;;;;;;5052097;28;20193;-80
2021/03/12 11:57:25;;;;;;;4.30;2.33;;;12.10;99.90;;;;;;5034710;28;20472;-79
2021/03/12 11:59:52;;;;;;;5.43;1.90;;;11.80;99.90;;;;;;5040938;28;20434;-79
2021/03/12 12:02:18;;;;;;;7.47;2.17;;;11.80;99.90;;;;;;5052303;28;20436;-79
2021/03/12 12:04:44;;;;;;;7.83;2.23;;;12.10;99.90;;;;;;5048939;28;20524;-75
2021/03/12 12:07:12;;;;;;;11.97;3.67;;;11.90;99.90;;;;;;5048042;28;21130;-77
2021/03/12 12:09:39;;;;;;;8.50;2.00;;;11.60;99.90;;;;;;5039515;28;20517;-78
2021/03/12 12:12:06;;;;;;;7.00;2.10;;;11.80;99.90;;;;;;5048751;28;20429;-77
2021/03/12 12:14:31;;;;;;;6.20;2.80;;;11.40;99.90;;;;;;5045505;28;20426;-78
2021/03/12 12:16:57;;;;;;;5.47;1.77;;;11.00;99.90;;;;;;5037624;28;20996;-78
2021/03/12 12:19:22;;;;;;;7.30;1.50;;;11.20;99.90;;;;;;5039227;28;20178;-77
2021/03/12 12:21:48;;;;;;;6.13;1.90;;;11.10;99.90;;;;;;5051946;28;20183;-78
2021/03/12 12:24:14;;;;;;;6.63;2.17;;;11.30;99.90;;;;;;5051832;28;20264;-78
2021/03/12 12:26:39;;;;;;;5.77;2.40;;;11.20;99.90;;;;;;5042630;28;20223;-78
2021/03/12 12:29:05;;;;;;;6.50;2.10;;;11.30;99.90;;;;;;5035208;28;20172;-77
2021/03/12 12:31:33;;;;;;;7.63;2.40;;;11.20;99.90;;;;;;5037564;28;20224;-77
2021/03/12 12:34:00;;;;;;;6.97;2.10;;;11.30;99.90;;;;;;5040810;28;21012;-77
2021/03/12 12:36:26;;;;;;;12.37;2.70;;;11.40;99.90;;;;;;5043282;28;20446;-75
2021/03/12 12:38:53;;;;;;;7.07;1.93;;;11.40;99.90;;;;;;5045366;28;20492;-78
2021/03/12 12:41:19;;;;;;;9.20;2.30;;;11.20;99.90;;;;;;5039264;28;20465;-80
2021/03/12 12:43:44;;;;;;;8.97;1.60;;;11.40;99.90;;;;;;5046189;28;20460;-78
2021/03/12 12:46:10;;;;;;;4.23;1.97;;;11.30;99.90;;;;;;5038335;28;20199;-78
2021/03/12 12:48:35;;;;;;;3.57;1.80;;;11.40;99.90;;;;;;5036706;28;20172;-77
2021/03/12 12:51:02;;;;;;;6.87;1.83;;;11.40;99.90;;;;;;5035916;28;20179;-76
2021/03/12 12:53:27;;;;;;;3.33;1.87;;;11.40;99.90;;;;;;5051147;28;20175;-77
2021/03/12 12:55:53;;;;;;;6.33;2.10;;;11.40;99.90;;;;;;5036705;28;20417;-78